sensor_id;sensor_type;location;lat;lon;timestamp;pressure;altitude;pressure_sealevel;temperature;humidity
21182;BME280;10749;46.296;7.524;2022-07-30T00:00:55;95190.34;;;21.82;60.21
21182;BME280;10749;46.296;7.524;2022-07-30T00:03:21;95186.00;;;21.81;60.10
21182;BME280;10749;46.296;7.524;2022-07-30T00:05:46;95181.06;;;21.78;60.11
21182;BME280;10749;46.296;7.524;2022-07-30T00:08:12;95187.44;;;21.72;59.95
21182;BME280;10749;46.296;7.524;2022-07-30T00:10:38;95185.78;;;21.71;60.15
21182;BME280;10749;46.296;7.524;2022-07-30T00:13:03;95177.81;;;21.76;60.04
21182;BME280;10749;46.296;7.524;2022-07-30T00:15:29;95181.06;;;21.78;60.04
21182;BME280;10749;46.296;7.524;2022-07-30T00:17:54;95184.59;;;21.79;60.20
21182;BME280;10749;46.296;7.524;2022-07-30T00:20:20;95186.94;;;21.75;60.36
21182;BME280;10749;46.296;7.524;2022-07-30T00:22:45;95183.59;;;21.68;60.38
21182;BME280;10749;46.296;7.524;2022-07-30T00:25:11;95190.38;;;21.71;60.31
21182;BME280;10749;46.296;7.524;2022-07-30T00:27:36;95187.44;;;21.72;60.48
21182;BME280;10749;46.296;7.524;2022-07-30T00:30:03;95188.97;;;21.68;60.67
21182;BME280;10749;46.296;7.524;2022-07-30T00:32:28;95185.56;;;21.73;60.35
21182;BME280;10749;46.296;7.524;2022-07-30T00:34:53;95183.94;;;21.72;60.42
21182;BME280;10749;46.296;7.524;2022-07-30T00:37:19;95182.66;;;21.62;60.68
21182;BME280;10749;46.296;7.524;2022-07-30T00:39:44;95185.13;;;21.64;60.46
21182;BME280;10749;46.296;7.524;2022-07-30T00:42:09;95185.94;;;21.64;60.72
21182;BME280;10749;46.296;7.524;2022-07-30T00:44:34;95185.03;;;21.59;61.28
21182;BME280;10749;46.296;7.524;2022-07-30T00:47:00;95182.59;;;21.57;60.93
21182;BME280;10749;46.296;7.524;2022-07-30T00:49:26;95180.22;;;21.61;60.55
21182;BME280;10749;46.296;7.524;2022-07-30T00:51:51;95185.63;;;21.61;60.66
21182;BME280;10749;46.296;7.524;2022-07-30T00:54:17;95191.13;;;21.54;60.70
21182;BME280;10749;46.296;7.524;2022-07-30T00:56:42;95187.16;;;21.57;60.52
21182;BME280;10749;46.296;7.524;2022-07-30T00:59:08;95180.00;;;21.51;60.53
21182;BME280;10749;46.296;7.524;2022-07-30T01:01:34;95178.66;;;21.37;60.55
21182;BME280;10749;46.296;7.524;2022-07-30T01:04:01;95188.19;;;21.16;60.80
21182;BME280;10749;46.296;7.524;2022-07-30T01:06:27;95179.84;;;21.06;60.88
21182;BME280;10749;46.296;7.524;2022-07-30T01:08:52;95182.06;;;21.09;60.86
21182;BME280;10749;46.296;7.524;2022-07-30T01:11:18;95188.50;;;20.96;60.90
21182;BME280;10749;46.296;7.524;2022-07-30T01:13:44;95189.22;;;20.92;61.02
21182;BME280;10749;46.296;7.524;2022-07-30T01:16:09;95179.63;;;20.84;61.05
21182;BME280;10749;46.296;7.524;2022-07-30T01:18:36;95175.41;;;20.88;61.04
21182;BME280;10749;46.296;7.524;2022-07-30T01:21:29;95177.06;;;20.89;61.17
21182;BME280;10749;46.296;7.524;2022-07-30T01:23:58;95174.72;;;20.81;61.38
21182;BME280;10749;46.296;7.524;2022-07-30T01:26:26;95169.59;;;20.68;61.87
21182;BME280;10749;46.296;7.524;2022-07-30T01:28:54;95168.41;;;20.64;61.84
21182;BME280;10749;46.296;7.524;2022-07-30T01:31:22;95166.19;;;20.72;61.01
21182;BME280;10749;46.296;7.524;2022-07-30T01:33:49;95164.53;;;20.83;61.01
21182;BME280;10749;46.296;7.524;2022-07-30T01:36:17;95161.75;;;20.90;60.63
21182;BME280;10749;46.296;7.524;2022-07-30T01:38:45;95160.00;;;20.95;60.98
21182;BME280;10749;46.296;7.524;2022-07-30T01:41:12;95156.47;;;20.83;61.22
21182;BME280;10749;46.296;7.524;2022-07-30T01:43:39;95161.97;;;20.88;61.10
21182;BME280;10749;46.296;7.524;2022-07-30T01:46:06;95160.06;;;21.00;60.79
21182;BME280;10749;46.296;7.524;2022-07-30T01:48:35;95162.56;;;21.13;60.56
21182;BME280;10749;46.296;7.524;2022-07-30T01:51:05;95157.38;;;21.00;60.86
21182;BME280;10749;46.296;7.524;2022-07-30T01:53:32;95158.22;;;20.89;60.79
21182;BME280;10749;46.296;7.524;2022-07-30T01:56:00;95157.88;;;20.97;60.61
21182;BME280;10749;46.296;7.524;2022-07-30T01:58:30;95156.03;;;20.75;60.85
21182;BME280;10749;46.296;7.524;2022-07-30T02:00:56;95157.44;;;20.54;60.77
21182;BME280;10749;46.296;7.524;2022-07-30T02:03:24;95159.66;;;20.45;61.40
21182;BME280;10749;46.296;7.524;2022-07-30T02:05:55;95152.16;;;20.36;61.39
21182;BME280;10749;46.296;7.524;2022-07-30T02:08:28;95154.03;;;20.35;61.44
21182;BME280;10749;46.296;7.524;2022-07-30T02:11:11;95157.84;;;20.27;62.19
21182;BME280;10749;46.296;7.524;2022-07-30T02:13:46;95153.19;;;20.35;61.66
21182;BME280;10749;46.296;7.524;2022-07-30T02:16:17;95159.63;;;20.34;61.35
21182;BME280;10749;46.296;7.524;2022-07-30T02:18:52;95155.88;;;20.35;61.21
21182;BME280;10749;46.296;7.524;2022-07-30T02:21:22;95156.28;;;20.50;60.85
21182;BME280;10749;46.296;7.524;2022-07-30T02:23:49;95145.59;;;20.55;60.71
21182;BME280;10749;46.296;7.524;2022-07-30T02:26:17;95153.22;;;20.58;60.64
21182;BME280;10749;46.296;7.524;2022-07-30T02:28:47;95140.13;;;20.61;60.50
21182;BME280;10749;46.296;7.524;2022-07-30T02:31:16;95139.06;;;20.62;60.22
21182;BME280;10749;46.296;7.524;2022-07-30T02:33:44;95138.38;;;20.55;60.19
21182;BME280;10749;46.296;7.524;2022-07-30T02:36:14;95142.34;;;20.53;59.95
21182;BME280;10749;46.296;7.524;2022-07-30T02:38:41;95135.44;;;20.57;60.01
21182;BME280;10749;46.296;7.524;2022-07-30T02:41:08;95139.75;;;20.46;60.10
21182;BME280;10749;46.296;7.524;2022-07-30T02:43:36;95134.75;;;20.50;59.78
21182;BME280;10749;46.296;7.524;2022-07-30T02:46:04;95131.72;;;20.58;59.80
21182;BME280;10749;46.296;7.524;2022-07-30T02:48:30;95137.78;;;20.42;59.84
21182;BME280;10749;46.296;7.524;2022-07-30T02:50:56;95127.25;;;20.52;59.80
21182;BME280;10749;46.296;7.524;2022-07-30T02:53:24;95124.81;;;20.62;60.03
21182;BME280;10749;46.296;7.524;2022-07-30T02:55:52;95136.16;;;20.64;59.61
21182;BME280;10749;46.296;7.524;2022-07-30T02:58:23;95133.69;;;20.51;59.62
21182;BME280;10749;46.296;7.524;2022-07-30T03:00:50;95129.94;;;20.52;59.52
21182;BME280;10749;46.296;7.524;2022-07-30T03:03:18;95143.16;;;20.42;59.33
21182;BME280;10749;46.296;7.524;2022-07-30T03:05:45;95143.75;;;20.32;59.20
21182;BME280;10749;46.296;7.524;2022-07-30T03:08:14;95138.44;;;20.25;59.42
21182;BME280;10749;46.296;7.524;2022-07-30T03:10:41;95144.78;;;20.31;59.56
21182;BME280;10749;46.296;7.524;2022-07-30T03:13:09;95155.75;;;20.30;59.39
21182;BME280;10749;46.296;7.524;2022-07-30T03:15:37;95154.44;;;20.20;59.88
21182;BME280;10749;46.296;7.524;2022-07-30T03:18:09;95162.72;;;20.07;60.07
21182;BME280;10749;46.296;7.524;2022-07-30T03:20:36;95160.16;;;20.12;59.86
21182;BME280;10749;46.296;7.524;2022-07-30T03:23:03;95165.53;;;20.12;59.93
21182;BME280;10749;46.296;7.524;2022-07-30T03:25:29;95165.63;;;20.06;59.94
21182;BME280;10749;46.296;7.524;2022-07-30T03:27:58;95159.00;;;20.08;60.38
21182;BME280;10749;46.296;7.524;2022-07-30T03:30:26;95165.41;;;20.07;60.04
21182;BME280;10749;46.296;7.524;2022-07-30T03:32:53;95163.53;;;20.08;60.36
21182;BME280;10749;46.296;7.524;2022-07-30T03:35:20;95170.19;;;20.05;60.42
21182;BME280;10749;46.296;7.524;2022-07-30T03:37:47;95167.28;;;20.07;60.43
21182;BME280;10749;46.296;7.524;2022-07-30T03:40:13;95167.75;;;20.04;60.19
21182;BME280;10749;46.296;7.524;2022-07-30T03:42:39;95169.47;;;19.98;60.14
21182;BME280;10749;46.296;7.524;2022-07-30T03:45:06;95173.34;;;20.02;59.90
21182;BME280;10749;46.296;7.524;2022-07-30T03:47:35;95168.53;;;20.04;60.17
21182;BME280;10749;46.296;7.524;2022-07-30T03:50:02;95179.16;;;19.99;59.92
21182;BME280;10749;46.296;7.524;2022-07-30T03:52:28;95182.19;;;19.91;60.08
21182;BME280;10749;46.296;7.524;2022-07-30T03:54:53;95185.31;;;19.88;60.26
21182;BME280;10749;46.296;7.524;2022-07-30T03:57:19;95183.59;;;19.94;60.18
21182;BME280;10749;46.296;7.524;2022-07-30T03:59:45;95192.94;;;19.91;60.21
21182;BME280;10749;46.296;7.524;2022-07-30T04:02:11;95195.13;;;19.83;60.00
21182;BME280;10749;46.296;7.524;2022-07-30T04:04:40;95196.50;;;19.85;60.40
21182;BME280;10749;46.296;7.524;2022-07-30T04:07:07;95194.28;;;19.82;60.16
21182;BME280;10749;46.296;7.524;2022-07-30T04:09:32;95189.97;;;19.81;60.31
21182;BME280;10749;46.296;7.524;2022-07-30T04:11:57;95192.06;;;19.79;60.47
21182;BME280;10749;46.296;7.524;2022-07-30T04:14:23;95206.06;;;19.81;60.68
21182;BME280;10749;46.296;7.524;2022-07-30T04:17:02;95207.25;;;19.85;60.27
21182;BME280;10749;46.296;7.524;2022-07-30T04:19:30;95204.72;;;19.90;60.34
21182;BME280;10749;46.296;7.524;2022-07-30T04:21:59;95204.72;;;19.90;60.49
21182;BME280;10749;46.296;7.524;2022-07-30T04:24:26;95205.28;;;19.92;60.55
21182;BME280;10749;46.296;7.524;2022-07-30T04:26:54;95209.63;;;19.93;60.61
21182;BME280;10749;46.296;7.524;2022-07-30T04:29:20;95210.97;;;19.84;60.62
21182;BME280;10749;46.296;7.524;2022-07-30T04:31:45;95212.41;;;19.87;60.14
21182;BME280;10749;46.296;7.524;2022-07-30T04:34:12;95220.09;;;19.83;60.24
21182;BME280;10749;46.296;7.524;2022-07-30T04:36:41;95213.22;;;19.87;60.42
21182;BME280;10749;46.296;7.524;2022-07-30T04:39:07;95227.16;;;19.96;60.08
21182;BME280;10749;46.296;7.524;2022-07-30T04:41:32;95227.75;;;19.98;60.14
21182;BME280;10749;46.296;7.524;2022-07-30T04:43:58;95232.28;;;19.97;59.80
21182;BME280;10749;46.296;7.524;2022-07-30T04:46:23;95234.41;;;19.95;60.08
21182;BME280;10749;46.296;7.524;2022-07-30T04:48:48;95241.72;;;19.88;60.31
21182;BME280;10749;46.296;7.524;2022-07-30T04:51:22;95237.16;;;19.89;60.15
21182;BME280;10749;46.296;7.524;2022-07-30T04:53:51;95246.03;;;19.89;60.47
21182;BME280;10749;46.296;7.524;2022-07-30T04:56:19;95249.91;;;19.93;60.70
21182;BME280;10749;46.296;7.524;2022-07-30T04:58:45;95247.22;;;19.93;60.21
21182;BME280;10749;46.296;7.524;2022-07-30T05:01:15;95239.03;;;19.88;60.39
21182;BME280;10749;46.296;7.524;2022-07-30T05:03:43;95245.50;;;19.69;61.18
21182;BME280;10749;46.296;7.524;2022-07-30T05:06:11;95243.25;;;19.66;61.17
21182;BME280;10749;46.296;7.524;2022-07-30T05:08:37;95236.19;;;19.53;61.69
21182;BME280;10749;46.296;7.524;2022-07-30T05:11:03;95249.63;;;19.53;62.18
21182;BME280;10749;46.296;7.524;2022-07-30T05:13:29;95248.13;;;19.57;61.75
21182;BME280;10749;46.296;7.524;2022-07-30T05:15:54;95248.56;;;19.54;61.58
21182;BME280;10749;46.296;7.524;2022-07-30T05:18:19;95251.56;;;19.46;61.30
21182;BME280;10749;46.296;7.524;2022-07-30T05:20:45;95249.25;;;19.50;61.11
21182;BME280;10749;46.296;7.524;2022-07-30T05:23:10;95253.53;;;19.51;60.83
21182;BME280;10749;46.296;7.524;2022-07-30T05:25:35;95263.19;;;19.58;60.64
21182;BME280;10749;46.296;7.524;2022-07-30T05:28:01;95258.16;;;19.80;60.61
21182;BME280;10749;46.296;7.524;2022-07-30T05:30:26;95262.72;;;20.09;60.21
21182;BME280;10749;46.296;7.524;2022-07-30T05:32:52;95260.44;;;20.24;59.96
21182;BME280;10749;46.296;7.524;2022-07-30T05:35:17;95266.59;;;20.25;59.83
21182;BME280;10749;46.296;7.524;2022-07-30T05:37:42;95270.59;;;20.22;59.96
21182;BME280;10749;46.296;7.524;2022-07-30T05:40:08;95266.59;;;20.25;59.96
21182;BME280;10749;46.296;7.524;2022-07-30T05:42:34;95267.44;;;20.25;59.82
21182;BME280;10749;46.296;7.524;2022-07-30T05:44:59;95265.00;;;20.24;59.93
21182;BME280;10749;46.296;7.524;2022-07-30T05:47:25;95267.66;;;20.12;60.22
21182;BME280;10749;46.296;7.524;2022-07-30T05:49:50;95269.25;;;20.13;60.07
21182;BME280;10749;46.296;7.524;2022-07-30T05:52:16;95275.38;;;20.20;60.43
21182;BME280;10749;46.296;7.524;2022-07-30T05:54:41;95271.75;;;20.26;60.23
21182;BME280;10749;46.296;7.524;2022-07-30T05:57:06;95272.75;;;20.32;60.18
21182;BME280;10749;46.296;7.524;2022-07-30T05:59:32;95277.53;;;20.30;60.01
21182;BME280;10749;46.296;7.524;2022-07-30T06:01:57;95267.00;;;20.28;59.89
21182;BME280;10749;46.296;7.524;2022-07-30T06:04:22;95274.09;;;20.23;60.22
21182;BME280;10749;46.296;7.524;2022-07-30T06:06:48;95269.53;;;20.23;60.05
21182;BME280;10749;46.296;7.524;2022-07-30T06:09:13;95265.00;;;20.24;60.05
21182;BME280;10749;46.296;7.524;2022-07-30T06:11:38;95266.78;;;20.30;59.87
21182;BME280;10749;46.296;7.524;2022-07-30T06:14:04;95266.09;;;20.35;59.77
21182;BME280;10749;46.296;7.524;2022-07-30T06:16:29;95271.63;;;20.21;60.19
21182;BME280;10749;46.296;7.524;2022-07-30T06:18:55;95262.28;;;20.12;60.83
21182;BME280;10749;46.296;7.524;2022-07-30T06:21:20;95268.09;;;20.09;60.84
21182;BME280;10749;46.296;7.524;2022-07-30T06:23:46;95268.66;;;20.30;60.48
21182;BME280;10749;46.296;7.524;2022-07-30T06:26:12;95266.81;;;20.42;60.40
21182;BME280;10749;46.296;7.524;2022-07-30T06:28:37;95265.84;;;20.66;60.41
21182;BME280;10749;46.296;7.524;2022-07-30T06:31:03;95266.06;;;20.64;59.78
21182;BME280;10749;46.296;7.524;2022-07-30T06:33:28;95267.94;;;20.76;60.05
21182;BME280;10749;46.296;7.524;2022-07-30T06:35:54;95273.22;;;21.05;59.55
21182;BME280;10749;46.296;7.524;2022-07-30T06:38:19;95263.91;;;21.20;59.29
21182;BME280;10749;46.296;7.524;2022-07-30T06:40:44;95267.84;;;21.17;58.77
21182;BME280;10749;46.296;7.524;2022-07-30T06:43:10;95264.34;;;21.16;59.12
21182;BME280;10749;46.296;7.524;2022-07-30T06:45:35;95256.38;;;21.22;58.67
21182;BME280;10749;46.296;7.524;2022-07-30T06:48:00;95255.91;;;21.25;58.73
21182;BME280;10749;46.296;7.524;2022-07-30T06:50:26;95258.72;;;21.30;59.13
21182;BME280;10749;46.296;7.524;2022-07-30T06:52:52;95264.09;;;21.30;59.09
21182;BME280;10749;46.296;7.524;2022-07-30T06:55:17;95259.75;;;21.52;58.67
21182;BME280;10749;46.296;7.524;2022-07-30T06:57:43;95258.34;;;21.61;58.58
21182;BME280;10749;46.296;7.524;2022-07-30T07:00:08;95257.84;;;21.64;58.24
21182;BME280;10749;46.296;7.524;2022-07-30T07:02:34;95260.16;;;21.72;58.42
21182;BME280;10749;46.296;7.524;2022-07-30T07:04:59;95259.31;;;21.83;58.29
21182;BME280;10749;46.296;7.524;2022-07-30T07:07:25;95258.38;;;21.89;57.94
21182;BME280;10749;46.296;7.524;2022-07-30T07:09:50;95262.09;;;22.00;57.97
21182;BME280;10749;46.296;7.524;2022-07-30T07:12:16;95258.88;;;22.15;58.20
21182;BME280;10749;46.296;7.524;2022-07-30T07:14:41;95272.81;;;22.23;57.94
21182;BME280;10749;46.296;7.524;2022-07-30T07:17:07;95261.66;;;22.20;57.76
21182;BME280;10749;46.296;7.524;2022-07-30T07:19:32;95268.13;;;22.19;57.83
21182;BME280;10749;46.296;7.524;2022-07-30T07:21:57;95265.16;;;22.32;57.43
21182;BME280;10749;46.296;7.524;2022-07-30T07:24:23;95256.56;;;22.35;57.46
21182;BME280;10749;46.296;7.524;2022-07-30T07:26:48;95266.13;;;22.42;57.34
21182;BME280;10749;46.296;7.524;2022-07-30T07:29:13;95259.69;;;22.43;57.18
21182;BME280;10749;46.296;7.524;2022-07-30T07:31:39;95266.19;;;22.31;57.10
21182;BME280;10749;46.296;7.524;2022-07-30T07:34:05;95256.56;;;22.35;56.89
21182;BME280;10749;46.296;7.524;2022-07-30T07:36:30;95262.91;;;22.29;56.79
21182;BME280;10749;46.296;7.524;2022-07-30T07:38:55;95265.91;;;22.44;57.03
21182;BME280;10749;46.296;7.524;2022-07-30T07:41:21;95264.34;;;22.48;56.85
21182;BME280;10749;46.296;7.524;2022-07-30T07:43:46;95271.47;;;22.54;57.01
21182;BME280;10749;46.296;7.524;2022-07-30T07:46:11;95267.22;;;22.58;57.04
21182;BME280;10749;46.296;7.524;2022-07-30T07:48:41;95267.81;;;22.60;56.76
21182;BME280;10749;46.296;7.524;2022-07-30T07:51:06;95268.69;;;22.66;56.92
21182;BME280;10749;46.296;7.524;2022-07-30T07:53:31;95260.16;;;22.57;56.55
21182;BME280;10749;46.296;7.524;2022-07-30T07:55:57;95257.66;;;22.50;56.55
21182;BME280;10749;46.296;7.524;2022-07-30T07:58:23;95255.19;;;22.49;56.90
21182;BME280;10749;46.296;7.524;2022-07-30T08:00:49;95252.84;;;22.52;56.80
21182;BME280;10749;46.296;7.524;2022-07-30T08:03:14;95259.41;;;22.45;56.64
21182;BME280;10749;46.296;7.524;2022-07-30T08:05:39;95257.47;;;22.57;56.85
21182;BME280;10749;46.296;7.524;2022-07-30T08:08:05;95253.81;;;22.63;56.73
21182;BME280;10749;46.296;7.524;2022-07-30T08:10:30;95252.06;;;22.85;56.97
21182;BME280;10749;46.296;7.524;2022-07-30T08:12:56;95254.66;;;22.97;56.89
21182;BME280;10749;46.296;7.524;2022-07-30T08:15:21;95252.72;;;22.92;56.33
21182;BME280;10749;46.296;7.524;2022-07-30T08:17:46;95247.31;;;22.92;56.52
21182;BME280;10749;46.296;7.524;2022-07-30T08:20:13;95248.66;;;23.12;56.46
21182;BME280;10749;46.296;7.524;2022-07-30T08:22:39;95246.84;;;23.34;56.43
21182;BME280;10749;46.296;7.524;2022-07-30T08:25:05;95250.59;;;23.50;56.29
21182;BME280;10749;46.296;7.524;2022-07-30T08:27:31;95245.78;;;23.52;55.48
21182;BME280;10749;46.296;7.524;2022-07-30T08:29:56;95244.59;;;23.64;55.71
21182;BME280;10749;46.296;7.524;2022-07-30T08:32:22;95246.19;;;23.65;55.72
21182;BME280;10749;46.296;7.524;2022-07-30T08:34:47;95242.06;;;23.79;55.63
21182;BME280;10749;46.296;7.524;2022-07-30T08:37:13;95233.88;;;23.74;55.24
21182;BME280;10749;46.296;7.524;2022-07-30T08:39:39;95236.66;;;23.79;55.50
21182;BME280;10749;46.296;7.524;2022-07-30T08:42:04;95239.59;;;24.00;55.47
21182;BME280;10749;46.296;7.524;2022-07-30T08:44:31;95234.72;;;24.18;55.71
21182;BME280;10749;46.296;7.524;2022-07-30T08:46:58;95232.41;;;24.32;55.68
21182;BME280;10749;46.296;7.524;2022-07-30T08:49:24;95236.75;;;24.33;54.94
21182;BME280;10749;46.296;7.524;2022-07-30T08:51:50;95236.75;;;24.33;54.68
21182;BME280;10749;46.296;7.524;2022-07-30T08:54:17;95227.63;;;24.44;54.85
21182;BME280;10749;46.296;7.524;2022-07-30T08:56:43;95230.66;;;24.48;54.77
21182;BME280;10749;46.296;7.524;2022-07-30T08:59:08;95220.84;;;24.15;49.75
21182;BME280;10749;46.296;7.524;2022-07-30T09:01:34;95225.78;;;24.18;52.95
21182;BME280;10749;46.296;7.524;2022-07-30T09:04:00;95231.28;;;24.28;52.48
21182;BME280;10749;46.296;7.524;2022-07-30T09:06:25;95223.34;;;24.48;52.95
21182;BME280;10749;46.296;7.524;2022-07-30T09:08:51;95221.81;;;24.57;53.09
21182;BME280;10749;46.296;7.524;2022-07-30T09:11:16;95213.78;;;24.67;53.35
21182;BME280;10749;46.296;7.524;2022-07-30T09:13:42;95215.44;;;24.73;53.36
21182;BME280;10749;46.296;7.524;2022-07-30T09:16:23;95210.31;;;24.77;53.13
21182;BME280;10749;46.296;7.524;2022-07-30T09:18:49;95207.59;;;24.72;52.33
21182;BME280;10749;46.296;7.524;2022-07-30T09:21:25;95214.84;;;24.66;52.68
21182;BME280;10749;46.296;7.524;2022-07-30T09:23:59;95220.28;;;24.66;52.87
21182;BME280;10749;46.296;7.524;2022-07-30T09:26:25;95212.94;;;24.62;52.55
21182;BME280;10749;46.296;7.524;2022-07-30T09:28:50;95215.69;;;24.67;52.11
21182;BME280;10749;46.296;7.524;2022-07-30T09:31:17;95209.44;;;24.66;51.95
21182;BME280;10749;46.296;7.524;2022-07-30T09:33:43;95214.03;;;24.66;52.23
21182;BME280;10749;46.296;7.524;2022-07-30T09:36:11;95214.91;;;24.71;52.28
21182;BME280;10749;46.296;7.524;2022-07-30T09:38:48;95220.88;;;24.73;51.66
21182;BME280;10749;46.296;7.524;2022-07-30T09:41:17;95218.09;;;24.68;51.19
21182;BME280;10749;46.296;7.524;2022-07-30T09:43:46;95213.81;;;24.72;50.88
21182;BME280;10749;46.296;7.524;2022-07-30T09:46:12;95207.13;;;24.80;51.93
21182;BME280;10749;46.296;7.524;2022-07-30T09:48:37;95208.56;;;24.88;51.22
21182;BME280;10749;46.296;7.524;2022-07-30T09:51:06;95215.13;;;24.97;51.28
21182;BME280;10749;46.296;7.524;2022-07-30T09:53:31;95200.50;;;24.98;50.88
21182;BME280;10749;46.296;7.524;2022-07-30T09:55:57;95210.31;;;25.04;50.60
21182;BME280;10749;46.296;7.524;2022-07-30T09:58:24;95201.94;;;25.10;50.44
21182;BME280;10749;46.296;7.524;2022-07-30T10:01:01;95208.94;;;25.06;50.22
21182;BME280;10749;46.296;7.524;2022-07-30T10:03:26;95190.19;;;24.95;50.02
21182;BME280;10749;46.296;7.524;2022-07-30T10:05:56;95199.91;;;24.91;50.21
21182;BME280;10749;46.296;7.524;2022-07-30T10:08:43;95190.13;;;24.85;50.36
21182;BME280;10749;46.296;7.524;2022-07-30T10:11:14;95197.38;;;24.79;48.93
21182;BME280;10749;46.296;7.524;2022-07-30T10:13:41;95203.31;;;24.76;49.48
21182;BME280;10749;46.296;7.524;2022-07-30T10:16:07;95194.97;;;24.82;49.43
21182;BME280;10749;46.296;7.524;2022-07-30T10:18:34;95196.66;;;24.89;49.36
21182;BME280;10749;46.296;7.524;2022-07-30T10:21:01;95186.72;;;24.99;49.54
21182;BME280;10749;46.296;7.524;2022-07-30T10:23:28;95189.81;;;25.23;49.47
21182;BME280;10749;46.296;7.524;2022-07-30T10:26:00;95180.19;;;25.42;49.68
21182;BME280;10749;46.296;7.524;2022-07-30T10:28:27;95176.47;;;25.53;49.15
21182;BME280;10749;46.296;7.524;2022-07-30T10:30:54;95171.91;;;25.64;49.42
21182;BME280;10749;46.296;7.524;2022-07-30T10:33:21;95170.88;;;25.80;48.47
21182;BME280;10749;46.296;7.524;2022-07-30T10:35:47;95163.34;;;25.92;49.00
21182;BME280;10749;46.296;7.524;2022-07-30T10:38:14;95163.34;;;26.02;48.68
21182;BME280;10749;46.296;7.524;2022-07-30T10:46:54;95160.66;;;26.17;46.26
21182;BME280;10749;46.296;7.524;2022-07-30T10:49:24;95156.63;;;26.30;46.86
21182;BME280;10749;46.296;7.524;2022-07-30T10:51:51;95157.75;;;26.29;46.56
21182;BME280;10749;46.296;7.524;2022-07-30T10:54:42;95150.63;;;26.18;46.32
21182;BME280;10749;46.296;7.524;2022-07-30T10:57:16;95150.63;;;26.08;45.48
21182;BME280;10749;46.296;7.524;2022-07-30T11:02:21;95145.72;;;25.95;45.40
21182;BME280;10749;46.296;7.524;2022-07-30T11:04:47;95148.41;;;25.90;43.75
21182;BME280;10749;46.296;7.524;2022-07-30T11:09:51;95148.69;;;25.93;44.95
21182;BME280;10749;46.296;7.524;2022-07-30T11:12:56;95154.44;;;26.22;44.67
21182;BME280;10749;46.296;7.524;2022-07-30T11:15:21;95145.25;;;26.48;42.31
21182;BME280;10749;46.296;7.524;2022-07-30T11:18:04;95138.19;;;26.57;43.13
21182;BME280;10749;46.296;7.524;2022-07-30T11:20:31;95145.78;;;26.76;42.85
21182;BME280;10749;46.296;7.524;2022-07-30T11:23:34;95137.06;;;26.84;42.94
21182;BME280;10749;46.296;7.524;2022-07-30T11:25:56;95141.47;;;26.85;42.98
21182;BME280;10749;46.296;7.524;2022-07-30T11:28:42;95147.91;;;27.14;43.41
21182;BME280;10749;46.296;7.524;2022-07-30T11:31:28;95140.56;;;27.25;42.72
21182;BME280;10749;46.296;7.524;2022-07-30T11:42:31;95139.44;;;27.31;41.05
21182;BME280;10749;46.296;7.524;2022-07-30T11:45:24;95133.50;;;27.19;38.95
21182;BME280;10749;46.296;7.524;2022-07-30T11:47:52;95138.69;;;27.10;38.83
21182;BME280;10749;46.296;7.524;2022-07-30T11:50:25;95140.84;;;27.18;38.86
21182;BME280;10749;46.296;7.524;2022-07-30T11:52:52;95135.94;;;27.25;39.26
21182;BME280;10749;46.296;7.524;2022-07-30T11:55:38;95137.03;;;27.24;40.01
21182;BME280;10749;46.296;7.524;2022-07-30T11:58:07;95140.84;;;27.23;39.21
21182;BME280;10749;46.296;7.524;2022-07-30T12:00:40;95142.50;;;27.09;38.01
21182;BME280;10749;46.296;7.524;2022-07-30T12:03:14;95141.97;;;27.12;38.87
21182;BME280;10749;46.296;7.524;2022-07-30T12:05:40;95130.97;;;27.42;38.91
21182;BME280;10749;46.296;7.524;2022-07-30T12:08:07;95133.13;;;27.61;38.47
21182;BME280;10749;46.296;7.524;2022-07-30T12:10:32;95131.50;;;27.54;37.56
21182;BME280;10749;46.296;7.524;2022-07-30T12:13:10;95126.63;;;27.51;38.14
21182;BME280;10749;46.296;7.524;2022-07-30T12:15:39;95123.38;;;27.44;37.05
21182;BME280;10749;46.296;7.524;2022-07-30T12:18:06;95119.56;;;27.45;36.50
21182;BME280;10749;46.296;7.524;2022-07-30T12:20:32;95117.41;;;27.47;36.61
21182;BME280;10749;46.296;7.524;2022-07-30T12:22:58;95137.50;;;27.51;36.33
21182;BME280;10749;46.296;7.524;2022-07-30T12:25:23;95137.53;;;27.41;35.61
21182;BME280;10749;46.296;7.524;2022-07-30T12:27:49;95136.44;;;27.47;36.06
21182;BME280;10749;46.296;7.524;2022-07-30T12:30:16;95126.09;;;27.44;35.01
21182;BME280;10749;46.296;7.524;2022-07-30T12:32:45;95125.28;;;27.44;34.94
21182;BME280;10749;46.296;7.524;2022-07-30T12:35:11;95126.09;;;27.44;34.03
21182;BME280;10749;46.296;7.524;2022-07-30T12:37:37;95129.34;;;27.46;33.13
21182;BME280;10749;46.296;7.524;2022-07-30T12:40:08;95138.31;;;27.52;32.44
21182;BME280;10749;46.296;7.524;2022-07-30T12:42:34;95137.50;;;27.51;32.56
21182;BME280;10749;46.296;7.524;2022-07-30T12:44:59;95137.75;;;27.55;32.27
21182;BME280;10749;46.296;7.524;2022-07-30T12:47:27;95140.78;;;27.53;33.23
21182;BME280;10749;46.296;7.524;2022-07-30T12:49:57;95142.38;;;27.54;33.15
21182;BME280;10749;46.296;7.524;2022-07-30T12:52:28;95148.38;;;27.51;32.29
21182;BME280;10749;46.296;7.524;2022-07-30T12:54:58;95146.13;;;27.74;33.16
21182;BME280;10749;46.296;7.524;2022-07-30T12:57:23;95152.44;;;28.08;33.99
21182;BME280;10749;46.296;7.524;2022-07-30T13:00:05;95143.97;;;28.20;34.14
21182;BME280;10749;46.296;7.524;2022-07-30T13:02:34;95130.72;;;28.47;33.31
21182;BME280;10749;46.296;7.524;2022-07-30T13:05:01;95119.41;;;28.64;33.60
21182;BME280;10749;46.296;7.524;2022-07-30T13:07:26;95125.34;;;29.00;33.69
21182;BME280;10749;46.296;7.524;2022-07-30T13:10:09;95128.63;;;29.25;33.59
21182;BME280;10749;46.296;7.524;2022-07-30T13:12:35;95126.78;;;29.45;33.17
21182;BME280;10749;46.296;7.524;2022-07-30T13:15:00;95130.03;;;29.70;32.78
21182;BME280;10749;46.296;7.524;2022-07-30T13:17:26;95129.22;;;29.94;33.26
21182;BME280;10749;46.296;7.524;2022-07-30T13:19:51;95125.88;;;30.15;32.96
21182;BME280;10749;46.296;7.524;2022-07-30T13:22:16;95123.31;;;30.43;32.64